Time;durP1;ratioP1;P1;durP2;ratioP2;P2;SDS_P1;SDS_P2;PMS_P1;PMS_P2;Temp;Humidity;BMP_temperature;BMP_pressure;BME280_temperature;BME280_humidity;BME280_pressure;Samples;Min_cycle;Max_cycle;Signal;HPM_P1;HPM_P2
2023/05/05 00:00:14;;;;;;;5.30;2.20;;;;;;;;;;5038499;28;20473;-80
2023/05/05 00:02:40;;;;;;;5.80;2.10;;;;;;;;;;5048910;28;20037;-80
2023/05/05 00:05:06;;;;;;;8.35;2.20;;;;;;;;;;5050334;28;20039;-80
2023/05/05 00:07:31;;;;;;;6.85;2.42;;;;;;;;;;5048712;28;20040;-79
2023/05/05 00:09:57;;;;;;;4.43;1.95;;;;;;;;;;5049286;28;20489;-79
2023/05/05 00:12:22;;;;;;;5.57;2.22;;;;;;;;;;5047919;28;20434;-79
2023/05/05 00:14:47;;;;;;;6.63;2.15;;;;;;;;;;5050296;28;20032;-79
2023/05/05 00:17:13;;;;;;;4.78;2.00;;;;;;;;;;5052650;28;20036;-79
2023/05/05 00:19:42;;;;;;;5.95;2.28;;;;;;;;;;5035484;28;20064;-79
2023/05/05 00:22:07;;;;;;;8.65;2.28;;;;;;;;;;5053049;28;20032;-78
2023/05/05 00:24:32;;;;;;;4.43;1.90;;;;;;;;;;5052746;28;20036;-79
2023/05/05 00:26:58;;;;;;;6.03;2.20;;;;;;;;;;5046655;28;20075;-78
2023/05/05 00:29:23;;;;;;;5.55;2.05;;;;;;;;;;5049694;28;20091;-78
2023/05/05 00:31:51;;;;;;;5.43;1.80;;;;;;;;;;5054444;28;20037;-78
2023/05/05 00:34:16;;;;;;;6.32;2.10;;;;;;;;;;5057009;28;20041;-78
2023/05/05 00:36:42;;;;;;;7.13;2.22;;;;;;;;;;5053051;28;20079;-78
2023/05/05 00:39:07;;;;;;;4.43;2.13;;;;;;;;;;5054439;28;20400;-78
2023/05/05 00:41:32;;;;;;;6.63;1.90;;;;;;;;;;5051977;28;20033;-78
2023/05/05 00:43:58;;;;;;;6.47;2.15;;;;;;;;;;5039204;28;20047;-78
2023/05/05 00:46:25;;;;;;;5.53;2.20;;;;;;;;;;5054644;28;20029;-79
2023/05/05 00:48:51;;;;;;;8.38;2.20;;;;;;;;;;5054257;28;20095;-79
2023/05/05 00:51:17;;;;;;;5.90;2.22;;;;;;;;;;5058716;28;20032;-79
2023/05/05 00:53:44;;;;;;;7.00;2.38;;;;;;;;;;5037247;28;20063;-78
2023/05/05 00:56:11;;;;;;;6.35;1.88;;;;;;;;;;5053733;28;20037;-79
2023/05/05 00:58:37;;;;;;;5.20;2.10;;;;;;;;;;5052893;28;20043;-79
2023/05/05 01:01:03;;;;;;;7.15;2.42;;;;;;;;;;5037780;28;20366;-79
2023/05/05 01:03:29;;;;;;;6.55;2.17;;;;;;;;;;5061057;28;20957;-78
2023/05/05 01:06:09;;;;;;;7.07;2.33;;;;;;;;;;5054396;28;20044;-78
2023/05/05 01:08:53;;;;;;;7.22;2.40;;;;;;;;;;5052103;28;20396;-78
2023/05/05 01:11:25;;;;;;;6.63;2.05;;;;;;;;;;5050318;28;20495;-79
2023/05/05 01:14:10;;;;;;;6.65;1.90;;;;;;;;;;5052821;28;20045;-78
2023/05/05 01:16:37;;;;;;;5.65;2.05;;;;;;;;;;5059950;28;20041;-78
2023/05/05 01:19:33;;;;;;;5.30;1.93;;;;;;;;;;5052921;28;20111;-78
2023/05/05 01:22:01;;;;;;;6.60;2.10;;;;;;;;;;5050488;28;20271;-78
2023/05/05 01:24:35;;;;;;;8.02;2.33;;;;;;;;;;5068555;28;20029;-78
2023/05/05 01:27:26;;;;;;;6.43;2.13;;;;;;;;;;5052344;28;20106;-79
2023/05/05 01:30:35;;;;;;;9.73;2.60;;;;;;;;;;5052032;28;20033;-79
2023/05/05 01:33:05;;;;;;;5.78;2.00;;;;;;;;;;5051023;28;21486;-78
2023/05/05 01:35:42;;;;;;;5.00;2.10;;;;;;;;;;5050021;28;20068;-79
2023/05/05 01:38:24;;;;;;;7.72;2.65;;;;;;;;;;5061643;28;20496;-79
2023/05/05 01:40:58;;;;;;;6.20;2.42;;;;;;;;;;5050906;28;20393;-78
2023/05/05 01:43:26;;;;;;;6.32;2.55;;;;;;;;;;5044805;28;20524;-79
2023/05/05 01:45:52;;;;;;;5.80;2.10;;;;;;;;;;5058098;28;20492;-78
2023/05/05 01:48:18;;;;;;;4.68;1.95;;;;;;;;;;5050413;28;20102;-78
2023/05/05 01:50:45;;;;;;;5.10;2.22;;;;;;;;;;5060537;28;20041;-78
2023/05/05 01:53:11;;;;;;;5.65;2.13;;;;;;;;;;5060399;28;20067;-77
2023/05/05 01:55:38;;;;;;;9.77;2.70;;;;;;;;;;5060310;28;20512;-78
2023/05/05 01:58:05;;;;;;;8.40;2.53;;;;;;;;;;5051149;28;20032;-78
2023/05/05 02:00:30;;;;;;;7.10;2.57;;;;;;;;;;5050771;28;20419;-79
2023/05/05 02:02:58;;;;;;;7.53;2.40;;;;;;;;;;5060477;28;20058;-78
2023/05/05 02:05:25;;;;;;;6.75;2.30;;;;;;;;;;5052156;28;20052;-79
2023/05/05 02:07:55;;;;;;;5.38;2.42;;;;;;;;;;5036255;28;20044;-79
2023/05/05 02:10:20;;;;;;;6.75;2.85;;;;;;;;;;5035749;28;20040;-78
2023/05/05 02:12:46;;;;;;;5.55;2.35;;;;;;;;;;5051339;28;20040;-79
2023/05/05 02:15:13;;;;;;;5.38;2.38;;;;;;;;;;5051491;28;20033;-78
2023/05/05 02:17:42;;;;;;;8.90;2.30;;;;;;;;;;5059223;28;20041;-78
2023/05/05 02:20:10;;;;;;;7.38;2.30;;;;;;;;;;5051268;28;20611;-77
2023/05/05 02:22:35;;;;;;;;;;;;;;;;;;5053883;28;20045;-78
2023/05/05 02:25:01;;;;;;;6.85;2.17;;;;;;;;;;5043280;28;19920;-77
2023/05/05 02:27:27;;;;;;;5.13;2.05;;;;;;;;;;5051515;28;20048;-80
2023/05/05 02:29:56;;;;;;;7.50;2.47;;;;;;;;;;5059715;28;20053;-79
2023/05/05 02:32:26;;;;;;;6.60;2.45;;;;;;;;;;5043117;28;20037;-79
2023/05/05 02:34:53;;;;;;;4.95;2.25;;;;;;;;;;5051203;28;20044;-79
2023/05/05 02:37:23;;;;;;;4.70;2.15;;;;;;;;;;5052429;28;20029;-79
2023/05/05 02:40:00;;;;;;;4.57;2.03;;;;;;;;;;5049506;28;20598;-79
2023/05/05 02:42:34;;;;;;;7.13;2.17;;;;;;;;;;5048254;28;20034;-79
2023/05/05 02:45:04;;;;;;;5.88;2.42;;;;;;;;;;5049975;28;20059;-79
2023/05/05 02:47:36;;;;;;;5.75;2.13;;;;;;;;;;5058677;28;20032;-78
2023/05/05 02:50:06;;;;;;;7.10;2.33;;;;;;;;;;5050152;28;20061;-79
2023/05/05 02:52:32;;;;;;;6.53;2.00;;;;;;;;;;5032638;28;20052;-79
2023/05/05 02:54:58;;;;;;;5.15;2.30;;;;;;;;;;5050932;28;20036;-79
2023/05/05 02:57:50;;;;;;;6.85;2.35;;;;;;;;;;5047425;28;20499;-79
2023/05/05 03:00:22;;;;;;;4.80;2.13;;;;;;;;;;5050736;28;20036;-79
2023/05/05 03:03:00;;;;;;;5.93;2.80;;;;;;;;;;5059453;28;21069;-79
2023/05/05 03:05:31;;;;;;;5.38;2.28;;;;;;;;;;5050894;28;20029;-79
2023/05/05 03:08:02;;;;;;;5.75;2.58;;;;;;;;;;5036479;28;20148;-79
2023/05/05 03:10:30;;;;;;;8.15;2.40;;;;;;;;;;5039014;28;20106;-78
2023/05/05 03:12:57;;;;;;;6.32;2.20;;;;;;;;;;5048747;28;20044;-79
2023/05/05 03:15:31;;;;;;;6.95;2.60;;;;;;;;;;5049498;28;20166;-79
2023/05/05 03:17:57;;;;;;;8.38;2.20;;;;;;;;;;5059367;28;20102;-79
2023/05/05 03:20:23;;;;;;;6.57;2.45;;;;;;;;;;5049169;28;20127;-79
2023/05/05 03:22:48;;;;;;;7.68;2.97;;;;;;;;;;5049437;28;20625;-79
2023/05/05 03:25:13;;;;;;;4.85;2.22;;;;;;;;;;5050336;28;20519;-79
2023/05/05 03:27:39;;;;;;;7.70;2.50;;;;;;;;;;5053673;28;20069;-79
2023/05/05 03:30:05;;;;;;;5.55;2.53;;;;;;;;;;5049250;28;20508;-79
2023/05/05 03:32:31;;;;;;;5.55;2.15;;;;;;;;;;5048461;28;20494;-79
2023/05/05 03:34:56;;;;;;;7.05;2.33;;;;;;;;;;5058058;28;20037;-79
2023/05/05 03:37:21;;;;;;;4.85;2.28;;;;;;;;;;5047397;28;20037;-79
2023/05/05 03:39:47;;;;;;;5.53;2.25;;;;;;;;;;5053463;28;20124;-79
2023/05/05 03:42:12;;;;;;;7.90;2.25;;;;;;;;;;5049199;28;20357;-78
2023/05/05 03:44:37;;;;;;;4.78;2.20;;;;;;;;;;5053075;28;20424;-79
2023/05/05 03:47:03;;;;;;;6.45;2.50;;;;;;;;;;5048954;28;20040;-79
2023/05/05 03:49:28;;;;;;;5.47;2.58;;;;;;;;;;5051162;28;20433;-79
2023/05/05 03:51:54;;;;;;;6.95;2.45;;;;;;;;;;5049962;28;20044;-79
2023/05/05 03:54:19;;;;;;;6.97;2.45;;;;;;;;;;5049355;28;20037;-78
2023/05/05 03:56:45;;;;;;;7.70;2.40;;;;;;;;;;5054607;28;20125;-79
2023/05/05 03:59:10;;;;;;;5.28;2.50;;;;;;;;;;5058012;28;20029;-79
2023/05/05 04:01:35;;;;;;;7.10;2.78;;;;;;;;;;5051355;28;20069;-78
2023/05/05 04:04:01;;;;;;;5.72;2.60;;;;;;;;;;5052836;28;20041;-79
2023/05/05 04:06:26;;;;;;;6.38;2.38;;;;;;;;;;5047428;28;20464;-79
2023/05/05 04:08:52;;;;;;;6.45;2.58;;;;;;;;;;5047728;28;20100;-80
2023/05/05 04:11:18;;;;;;;6.93;2.70;;;;;;;;;;5052740;28;20354;-81
2023/05/05 04:13:43;;;;;;;8.27;2.05;;;;;;;;;;5054981;28;20043;-80
2023/05/05 04:16:09;;;;;;;9.63;2.92;;;;;;;;;;5052538;28;20108;-81
2023/05/05 04:18:35;;;;;;;7.25;2.53;;;;;;;;;;5051624;28;20036;-81
2023/05/05 04:21:00;;;;;;;6.28;2.05;;;;;;;;;;5052264;28;20046;-82
2023/05/05 04:23:25;;;;;;;7.30;2.42;;;;;;;;;;5058882;28;20028;-81
2023/05/05 04:25:51;;;;;;;5.45;2.25;;;;;;;;;;5054591;28;20516;-81
2023/05/05 04:28:16;;;;;;;7.82;2.60;;;;;;;;;;5054417;28;20275;-81
2023/05/05 04:30:42;;;;;;;5.88;2.53;;;;;;;;;;5060456;28;20044;-81
2023/05/05 04:33:07;;;;;;;8.65;2.55;;;;;;;;;;5053486;28;20558;-81
2023/05/05 04:35:33;;;;;;;5.07;2.63;;;;;;;;;;5054204;28;20044;-81
2023/05/05 04:37:59;;;;;;;7.10;2.53;;;;;;;;;;5052200;28;20045;-81
2023/05/05 04:40:25;;;;;;;4.80;2.45;;;;;;;;;;5053639;28;20082;-81
2023/05/05 04:42:50;;;;;;;6.53;3.00;;;;;;;;;;5053069;28;20032;-81
2023/05/05 04:45:16;;;;;;;5.10;2.20;;;;;;;;;;5054191;28;20041;-81
2023/05/05 04:47:41;;;;;;;9.60;2.88;;;;;;;;;;5054819;28;20044;-81
2023/05/05 04:50:07;;;;;;;5.53;2.60;;;;;;;;;;5054739;28;20439;-80
2023/05/05 04:52:33;;;;;;;6.05;2.40;;;;;;;;;;5051002;28;20053;-79
2023/05/05 04:54:58;;;;;;;4.93;2.20;;;;;;;;;;5052254;28;20052;-79
2023/05/05 04:57:24;;;;;;;8.35;3.80;;;;;;;;;;5051046;28;20071;-78
2023/05/05 04:59:49;;;;;;;7.15;3.05;;;;;;;;;;5053708;28;20460;-79
2023/05/05 05:02:15;;;;;;;9.98;4.00;;;;;;;;;;5051693;28;20429;-78
2023/05/05 05:04:40;;;;;;;10.13;4.32;;;;;;;;;;5052695;28;20496;-78
2023/05/05 05:07:06;;;;;;;8.45;3.58;;;;;;;;;;5038772;28;20525;-78
2023/05/05 05:09:31;;;;;;;5.88;2.55;;;;;;;;;;5054224;28;20041;-78
2023/05/05 05:12:01;;;;;;;6.88;2.53;;;;;;;;;;5051938;28;20044;-78
2023/05/05 05:14:27;;;;;;;6.85;2.50;;;;;;;;;;5035585;28;20044;-78
2023/05/05 05:16:53;;;;;;;5.70;2.80;;;;;;;;;;5043749;28;20045;-78
2023/05/05 05:19:18;;;;;;;4.68;2.50;;;;;;;;;;5052203;28;20044;-80
2023/05/05 05:21:44;;;;;;;5.55;2.80;;;;;;;;;;5049796;28;20045;-80
2023/05/05 05:24:10;;;;;;;8.98;2.83;;;;;;;;;;5043738;28;20506;-80
2023/05/05 05:26:36;;;;;;;5.45;2.45;;;;;;;;;;5042909;28;20552;-81
2023/05/05 05:29:01;;;;;;;7.45;2.58;;;;;;;;;;5060778;28;20033;-80
2023/05/05 05:31:27;;;;;;;8.13;2.80;;;;;;;;;;5033689;28;20511;-80
2023/05/05 05:33:52;;;;;;;7.72;3.35;;;;;;;;;;5038502;28;20160;-81
2023/05/05 05:36:18;;;;;;;6.07;2.72;;;;;;;;;;5050198;28;20063;-81
2023/05/05 05:38:43;;;;;;;8.70;3.20;;;;;;;;;;5051428;28;20116;-81
2023/05/05 05:41:08;;;;;;;7.82;2.92;;;;;;;;;;5049771;28;20210;-81
2023/05/05 05:43:34;;;;;;;6.85;2.85;;;;;;;;;;5053344;28;20129;-80
2023/05/05 05:45:59;;;;;;;7.45;2.97;;;;;;;;;;5051609;28;20036;-81
2023/05/05 05:48:27;;;;;;;6.75;2.80;;;;;;;;;;5052844;28;20032;-81
2023/05/05 05:50:53;;;;;;;7.65;3.08;;;;;;;;;;5051901;28;20047;-80
2023/05/05 05:53:18;;;;;;;11.38;4.57;;;;;;;;;;5038300;28;20044;-80
2023/05/05 05:55:46;;;;;;;6.03;2.47;;;;;;;;;;5050945;28;20909;-79
2023/05/05 05:58:12;;;;;;;7.13;2.65;;;;;;;;;;5051924;28;20051;-80
2023/05/05 06:00:37;;;;;;;8.00;3.00;;;;;;;;;;5051617;28;20039;-81
2023/05/05 06:03:02;;;;;;;6.75;2.85;;;;;;;;;;5050937;28;20492;-81
2023/05/05 06:05:28;;;;;;;7.82;2.92;;;;;;;;;;5056354;28;20098;-81
2023/05/05 06:07:53;;;;;;;6.05;2.72;;;;;;;;;;5053476;28;20052;-81
2023/05/05 06:10:18;;;;;;;9.05;3.47;;;;;;;;;;5052658;28;20064;-81
2023/05/05 06:12:44;;;;;;;6.57;3.22;;;;;;;;;;5049143;28;20036;-80
2023/05/05 06:15:10;;;;;;;6.38;3.17;;;;;;;;;;5041180;28;20719;-81
2023/05/05 06:17:35;;;;;;;9.32;2.83;;;;;;;;;;5053555;28;20087;-80
2023/05/05 06:20:01;;;;;;;8.27;3.13;;;;;;;;;;5052040;28;20067;-81
2023/05/05 06:22:26;;;;;;;7.63;3.75;;;;;;;;;;5042311;28;20048;-81
2023/05/05 06:24:51;;;;;;;6.68;3.15;;;;;;;;;;5052513;28;20053;-81
2023/05/05 06:27:17;;;;;;;9.40;3.30;;;;;;;;;;5050751;28;20047;-79
2023/05/05 06:29:42;;;;;;;5.47;2.83;;;;;;;;;;5050966;28;20449;-81
2023/05/05 06:32:07;;;;;;;7.32;2.92;;;;;;;;;;5050360;28;20029;-81
2023/05/05 06:34:33;;;;;;;6.95;2.92;;;;;;;;;;5052830;28;20048;-81
2023/05/05 06:36:58;;;;;;;9.80;2.88;;;;;;;;;;5050293;28;20076;-82
2023/05/05 06:39:24;;;;;;;5.50;2.70;;;;;;;;;;5041990;28;20036;-81
2023/05/05 06:41:49;;;;;;;8.65;2.90;;;;;;;;;;5041952;28;20036;-81
2023/05/05 06:44:15;;;;;;;8.45;3.10;;;;;;;;;;5043551;28;20487;-81
2023/05/05 06:46:42;;;;;;;6.63;3.20;;;;;;;;;;5040408;28;20119;-81
2023/05/05 06:49:07;;;;;;;7.45;2.95;;;;;;;;;;5050035;28;20086;-81
2023/05/05 06:51:34;;;;;;;10.05;3.80;;;;;;;;;;5057266;28;20437;-81
2023/05/05 06:53:59;;;;;;;7.32;3.13;;;;;;;;;;5058612;28;20037;-81
2023/05/05 06:56:24;;;;;;;6.32;2.65;;;;;;;;;;5051186;28;20086;-81
2023/05/05 06:58:50;;;;;;;6.55;2.67;;;;;;;;;;5049430;28;20036;-81
2023/05/05 07:01:15;;;;;;;7.97;2.78;;;;;;;;;;5047568;28;20032;-80
2023/05/05 07:03:41;;;;;;;7.70;3.08;;;;;;;;;;5055011;28;20060;-81
2023/05/05 07:06:06;;;;;;;8.00;2.88;;;;;;;;;;5049596;28;20082;-81
2023/05/05 07:08:32;;;;;;;6.45;2.58;;;;;;;;;;5051362;28;20515;-81
2023/05/05 07:10:59;;;;;;;7.95;3.20;;;;;;;;;;5050799;28;20856;-81
2023/05/05 07:13:25;;;;;;;;;;;;;;;;;;5038185;28;20086;-81
2023/05/05 07:15:50;;;;;;;11.70;2.72;;;;;;;;;;5048977;28;19924;-81
2023/05/05 07:18:16;;;;;;;6.38;2.75;;;;;;;;;;5048849;28;20781;-81
2023/05/05 07:20:43;;;;;;;7.78;3.03;;;;;;;;;;5051035;28;20037;-81
2023/05/05 07:23:08;;;;;;;9.23;2.80;;;;;;;;;;5039810;28;20840;-82
2023/05/05 07:25:34;;;;;;;8.60;2.30;;;;;;;;;;5052089;28;20041;-81
2023/05/05 07:27:59;;;;;;;6.38;2.60;;;;;;;;;;5051458;28;20102;-82
2023/05/05 07:30:25;;;;;;;6.75;2.55;;;;;;;;;;5035055;28;20037;-82
2023/05/05 07:32:50;;;;;;;6.70;2.83;;;;;;;;;;5052624;28;20033;-81
2023/05/05 07:35:16;;;;;;;8.38;2.95;;;;;;;;;;5049487;28;20500;-81
2023/05/05 07:37:42;;;;;;;5.82;2.30;;;;;;;;;;5051004;28;20480;-80
2023/05/05 07:40:08;;;;;;;9.05;2.90;;;;;;;;;;5051905;28;20396;-82
2023/05/05 07:42:33;;;;;;;5.60;2.53;;;;;;;;;;5042142;28;20048;-82
2023/05/05 07:44:59;;;;;;;4.63;2.60;;;;;;;;;;5039179;28;20492;-82
2023/05/05 07:47:25;;;;;;;5.88;2.42;;;;;;;;;;5053122;28;20043;-81
2023/05/05 07:49:50;;;;;;;4.88;2.30;;;;;;;;;;5045673;28;20068;-79
2023/05/05 07:52:15;;;;;;;5.07;2.58;;;;;;;;;;5045345;28;20047;-82
2023/05/05 07:54:41;;;;;;;6.60;2.30;;;;;;;;;;5053897;28;20045;-82
2023/05/05 07:57:06;;;;;;;7.35;2.50;;;;;;;;;;5044402;28;20033;-82
2023/05/05 07:59:32;;;;;;;8.82;2.20;;;;;;;;;;5054744;28;20040;-82
2023/05/05 08:01:58;;;;;;;4.68;2.10;;;;;;;;;;5046299;28;20053;-83
2023/05/05 08:04:23;;;;;;;5.35;2.20;;;;;;;;;;5043799;28;20146;-82
2023/05/05 08:06:48;;;;;;;6.90;2.53;;;;;;;;;;5052490;28;20412;-82
2023/05/05 08:09:14;;;;;;;6.15;2.20;;;;;;;;;;5061586;28;20437;-83
2023/05/05 08:11:39;;;;;;;9.32;2.63;;;;;;;;;;5060963;28;20033;-83
2023/05/05 08:14:05;;;;;;;5.93;2.80;;;;;;;;;;5050683;28;20043;-82
2023/05/05 08:16:31;;;;;;;6.60;2.50;;;;;;;;;;5050043;28;20050;-82
2023/05/05 08:18:56;;;;;;;4.97;2.20;;;;;;;;;;5052968;28;20131;-83
2023/05/05 08:21:21;;;;;;;5.18;2.53;;;;;;;;;;5051014;28;20039;-83
2023/05/05 08:23:47;;;;;;;6.22;2.53;;;;;;;;;;5052840;28;20047;-84
2023/05/05 08:26:12;;;;;;;6.55;2.80;;;;;;;;;;5053812;28;20043;-82
2023/05/05 08:28:38;;;;;;;5.25;2.50;;;;;;;;;;5057433;28;20076;-82
2023/05/05 08:31:04;;;;;;;6.90;2.63;;;;;;;;;;5052342;28;20090;-83
2023/05/05 08:33:30;;;;;;;5.65;2.47;;;;;;;;;;5044308;28;20032;-85
2023/05/05 08:35:55;;;;;;;9.50;2.25;;;;;;;;;;5049724;28;20033;-83
2023/05/05 08:38:20;;;;;;;5.78;2.30;;;;;;;;;;5043760;28;20039;-83
2023/05/05 08:40:46;;;;;;;7.25;2.50;;;;;;;;;;5053521;28;20041;-81
2023/05/05 08:43:11;;;;;;;4.40;2.08;;;;;;;;;;5059290;28;20040;-82
2023/05/05 08:45:39;;;;;;;5.97;2.28;;;;;;;;;;5043318;28;20146;-81
2023/05/05 08:48:05;;;;;;;8.23;2.60;;;;;;;;;;5029211;28;20063;-83
2023/05/05 08:50:31;;;;;;;7.15;2.40;;;;;;;;;;5051769;28;20426;-81
2023/05/05 08:53:21;;;;;;;5.47;2.10;;;;;;;;;;5052952;28;20044;-81
2023/05/05 08:55:55;;;;;;;8.48;2.40;;;;;;;;;;5052774;28;20090;-81
2023/05/05 08:58:24;;;;;;;4.35;2.17;;;;;;;;;;5053775;28;20901;-81
2023/05/05 09:00:49;;;;;;;5.13;2.28;;;;;;;;;;5043900;28;20040;-82
2023/05/05 09:03:15;;;;;;;6.45;2.40;;;;;;;;;;5050512;28;20063;-82
2023/05/05 09:05:44;;;;;;;5.25;2.10;;;;;;;;;;5050988;28;20032;-82
2023/05/05 09:08:10;;;;;;;4.10;1.88;;;;;;;;;;5052533;28;20033;-83
2023/05/05 09:10:36;;;;;;;5.05;2.20;;;;;;;;;;5051145;28;20041;-83
2023/05/05 09:13:05;;;;;;;6.13;2.28;;;;;;;;;;5037018;28;20036;-82
2023/05/05 09:15:32;;;;;;;5.13;2.42;;;;;;;;;;5060274;28;20626;-82
2023/05/05 09:17:58;;;;;;;6.70;2.20;;;;;;;;;;5053130;28;20036;-83
2023/05/05 09:20:23;;;;;;;7.57;2.30;;;;;;;;;;5050671;28;20040;-82
2023/05/05 09:22:49;;;;;;;6.78;2.80;;;;;;;;;;5053459;28;20404;-82
2023/05/05 09:25:17;;;;;;;7.70;2.90;;;;;;;;;;5059598;28;20813;-82
2023/05/05 09:27:47;;;;;;;5.53;2.35;;;;;;;;;;5050913;28;20558;-82
2023/05/05 09:30:17;;;;;;;6.88;2.33;;;;;;;;;;5051742;28;20152;-81
2023/05/05 09:32:44;;;;;;;5.57;2.10;;;;;;;;;;5047496;28;20495;-81
2023/05/05 09:35:10;;;;;;;4.88;2.10;;;;;;;;;;5051230;28;20512;-81
2023/05/05 09:37:36;;;;;;;6.28;2.22;;;;;;;;;;5050928;28;20048;-82
2023/05/05 09:40:01;;;;;;;4.28;2.10;;;;;;;;;;5051081;28;20033;-82
2023/05/05 09:42:27;;;;;;;3.88;1.80;;;;;;;;;;5049964;28;20033;-82
2023/05/05 09:44:53;;;;;;;5.60;2.40;;;;;;;;;;5053174;28;20032;-82
2023/05/05 09:47:19;;;;;;;4.57;1.92;;;;;;;;;;5049482;28;20037;-81
2023/05/05 09:49:44;;;;;;;5.05;2.03;;;;;;;;;;5052755;28;20044;-81
2023/05/05 09:52:14;;;;;;;6.22;2.88;;;;;;;;;;5054211;28;20480;-81
2023/05/05 09:54:40;;;;;;;5.60;2.20;;;;;;;;;;5052133;28;20119;-81
2023/05/05 09:57:05;;;;;;;5.07;2.53;;;;;;;;;;5058063;28;20052;-81
2023/05/05 09:59:31;;;;;;;4.90;1.90;;;;;;;;;;5054117;28;20095;-82
2023/05/05 10:02:12;;;;;;;5.22;2.03;;;;;;;;;;5051131;28;20040;-81
2023/05/05 10:04:38;;;;;;;3.53;1.63;;;;;;;;;;5044497;28;20423;-80
2023/05/05 10:07:03;;;;;;;6.00;2.88;;;;;;;;;;5047511;28;20063;-79
2023/05/05 10:09:31;;;;;;;5.55;1.90;;;;;;;;;;5052689;28;20029;-79
2023/05/05 10:11:58;;;;;;;3.50;1.77;;;;;;;;;;5053428;28;20353;-80
2023/05/05 10:14:25;;;;;;;4.25;2.00;;;;;;;;;;5052028;28;20396;-80
2023/05/05 10:16:52;;;;;;;4.72;2.10;;;;;;;;;;5040940;28;20048;-80
2023/05/05 10:19:19;;;;;;;5.30;2.00;;;;;;;;;;5049657;28;20119;-81
2023/05/05 10:21:48;;;;;;;5.00;1.90;;;;;;;;;;5058674;28;20056;-81
2023/05/05 10:24:23;;;;;;;6.65;2.03;;;;;;;;;;5052847;28;20025;-80
2023/05/05 10:26:48;;;;;;;4.15;1.80;;;;;;;;;;5065293;28;20048;-80
2023/05/05 10:29:52;;;;;;;4.28;1.90;;;;;;;;;;5038743;28;20029;-80
2023/05/05 10:32:48;;;;;;;5.72;2.08;;;;;;;;;;4999916;28;20042;-80
2023/05/05 10:35:16;;;;;;;4.22;1.88;;;;;;;;;;5035118;28;20090;-80
2023/05/05 10:37:43;;;;;;;4.50;2.08;;;;;;;;;;5047691;28;20045;-83
2023/05/05 10:40:09;;;;;;;5.40;1.70;;;;;;;;;;5021584;28;20029;-82
2023/05/05 10:42:41;;;;;;;4.72;1.90;;;;;;;;;;5059354;28;20040;-83
2023/05/05 10:45:06;;;;;;;4.13;1.50;;;;;;;;;;5051355;28;20040;-82
2023/05/05 10:47:33;;;;;;;4.22;1.77;;;;;;;;;;5049346;28;20048;-82
2023/05/05 10:50:05;;;;;;;4.45;1.92;;;;;;;;;;5054504;28;20041;-81
2023/05/05 10:52:46;;;;;;;3.72;1.80;;;;;;;;;;5052420;28;20574;-82
2023/05/05 10:55:21;;;;;;;6.90;2.10;;;;;;;;;;5059288;28;20047;-80
2023/05/05 10:57:51;;;;;;;3.50;1.90;;;;;;;;;;5051915;28;20561;-80
2023/05/05 11:00:38;;;;;;;4.40;1.92;;;;;;;;;;5042557;28;20037;-81
2023/05/05 11:03:15;;;;;;;4.90;1.88;;;;;;;;;;5051167;28;20082;-81
2023/05/05 11:06:02;;;;;;;4.93;1.80;;;;;;;;;;5051516;28;20122;-82
2023/05/05 11:08:28;;;;;;;5.38;2.13;;;;;;;;;;5052112;28;20069;-81
2023/05/05 11:10:54;;;;;;;3.92;1.70;;;;;;;;;;5031431;28;20052;-80
2023/05/05 11:13:19;;;;;;;4.63;2.08;;;;;;;;;;5051127;28;20493;-81
2023/05/05 11:15:45;;;;;;;4.15;1.70;;;;;;;;;;5050295;28;20033;-83
2023/05/05 11:18:34;;;;;;;4.45;1.90;;;;;;;;;;5056462;28;20288;-82
2023/05/05 11:20:59;;;;;;;4.07;1.77;;;;;;;;;;5051068;28;20178;-81
2023/05/05 11:23:25;;;;;;;3.50;1.63;;;;;;;;;;5051555;28;20825;-81
2023/05/05 11:25:56;;;;;;;4.82;2.05;;;;;;;;;;5052160;28;20041;-80
2023/05/05 11:28:24;;;;;;;4.45;2.10;;;;;;;;;;5059150;28;20051;-81
2023/05/05 11:30:55;;;;;;;3.60;1.67;;;;;;;;;;5066167;28;20119;-80
2023/05/05 11:33:31;;;;;;;4.38;1.90;;;;;;;;;;5049727;28;20041;-81
2023/05/05 11:35:58;;;;;;;6.33;1.97;;;;;;;;;;5049695;28;20036;-81
2023/05/05 11:38:36;;;;;;;4.82;2.00;;;;;;;;;;5050525;28;20041;-82
2023/05/05 11:41:05;;;;;;;;;;;;;;;;;;5050796;28;20044;-82
2023/05/05 11:43:30;;;;;;;4.22;1.75;;;;;;;;;;5052479;28;20458;-82
2023/05/05 11:46:15;;;;;;;6.97;2.25;;;;;;;;;;5049046;28;20037;-82
2023/05/05 11:48:48;;;;;;;3.97;1.80;;;;;;;;;;5031380;28;20552;-82
2023/05/05 11:51:17;;;;;;;4.75;1.73;;;;;;;;;;5049155;28;20147;-82
2023/05/05 11:53:49;;;;;;;4.32;1.63;;;;;;;;;;5051771;28;20033;-81
2023/05/05 11:56:17;;;;;;;4.43;2.22;;;;;;;;;;5056130;28;20067;-81
2023/05/05 11:58:46;;;;;;;6.28;1.85;;;;;;;;;;5049376;28;20527;-82
2023/05/05 12:01:12;;;;;;;4.85;2.30;;;;;;;;;;5054648;28;20047;-78
2023/05/05 12:03:38;;;;;;;3.70;1.63;;;;;;;;;;5043250;28;20032;-81
2023/05/05 12:06:05;;;;;;;5.00;1.80;;;;;;;;;;5035856;28;20465;-81
2023/05/05 12:08:37;;;;;;;4.20;1.88;;;;;;;;;;5048279;28;20029;-78
2023/05/05 12:11:03;;;;;;;5.03;2.03;;;;;;;;;;5049410;28;20037;-78
2023/05/05 12:13:29;;;;;;;6.45;1.70;;;;;;;;;;5048792;28;20059;-78
2023/05/05 12:15:54;;;;;;;6.13;2.08;;;;;;;;;;5047798;28;20040;-77
2023/05/05 12:18:20;;;;;;;4.32;1.60;;;;;;;;;;5051109;28;20032;-78
2023/05/05 12:20:45;;;;;;;3.95;1.50;;;;;;;;;;5050664;28;20044;-78
2023/05/05 12:23:11;;;;;;;4.38;1.50;;;;;;;;;;5039481;28;20037;-78
2023/05/05 12:25:38;;;;;;;4.80;1.70;;;;;;;;;;5050868;28;20401;-78
2023/05/05 12:28:07;;;;;;;6.22;2.17;;;;;;;;;;5037354;28;20161;-78
2023/05/05 12:30:33;;;;;;;6.22;1.90;;;;;;;;;;5048778;28;20472;-77
2023/05/05 12:33:03;;;;;;;5.93;1.98;;;;;;;;;;5053819;28;20028;-77
2023/05/05 12:35:29;;;;;;;4.00;1.88;;;;;;;;;;5052786;28;20047;-79
2023/05/05 12:37:55;;;;;;;7.35;2.38;;;;;;;;;;5052345;28;20059;-78
2023/05/05 12:40:46;;;;;;;4.85;2.15;;;;;;;;;;5054250;28;20032;-78
2023/05/05 12:43:30;;;;;;;4.45;1.80;;;;;;;;;;5051792;28;20037;-78
2023/05/05 12:46:06;;;;;;;4.93;1.95;;;;;;;;;;5054026;28;20040;-77
2023/05/05 12:48:32;;;;;;;5.47;2.33;;;;;;;;;;5039729;28;20120;-78
2023/05/05 12:51:17;;;;;;;4.45;1.73;;;;;;;;;;5050781;28;20041;-79
2023/05/05 12:53:44;;;;;;;4.55;1.85;;;;;;;;;;5039184;28;20041;-80
2023/05/05 12:56:43;;;;;;;5.15;1.90;;;;;;;;;;5043183;28;20336;-81
2023/05/05 12:59:28;;;;;;;3.60;1.65;;;;;;;;;;5019869;28;20038;-80
2023/05/05 13:01:54;;;;;;;5.13;1.90;;;;;;;;;;5044479;28;20067;-81
2023/05/05 13:04:21;;;;;;;5.68;2.35;;;;;;;;;;5046934;28;20711;-80
2023/05/05 13:06:48;;;;;;;4.53;1.80;;;;;;;;;;5054837;28;20438;-80
2023/05/05 13:09:29;;;;;;;5.10;2.10;;;;;;;;;;5055918;28;20047;-80
2023/05/05 13:11:54;;;;;;;7.30;2.05;;;;;;;;;;5052240;28;20064;-79
2023/05/05 13:14:20;;;;;;;11.27;1.85;;;;;;;;;;5053416;28;20168;-79
2023/05/05 13:16:45;;;;;;;5.43;1.60;;;;;;;;;;5035460;28;20070;-78
2023/05/05 13:19:11;;;;;;;3.97;1.80;;;;;;;;;;5050561;28;20036;-79
2023/05/05 13:21:36;;;;;;;3.83;1.73;;;;;;;;;;5053779;28;20043;-80
2023/05/05 13:24:02;;;;;;;5.95;1.90;;;;;;;;;;5055036;28;20037;-79
2023/05/05 13:26:28;;;;;;;4.03;1.67;;;;;;;;;;5037473;28;20033;-79
2023/05/05 13:28:53;;;;;;;3.65;1.45;;;;;;;;;;5053859;28;20060;-79
2023/05/05 13:31:19;;;;;;;5.93;1.80;;;;;;;;;;5035448;28;20059;-79
2023/05/05 13:33:45;;;;;;;5.72;2.03;;;;;;;;;;5054427;28;20033;-79
2023/05/05 13:36:10;;;;;;;4.95;1.77;;;;;;;;;;5043610;28;20065;-80
2023/05/05 13:38:36;;;;;;;4.95;1.52;;;;;;;;;;5054326;28;20029;-80
2023/05/05 13:41:01;;;;;;;3.72;1.50;;;;;;;;;;5052888;28;20136;-80
2023/05/05 13:43:27;;;;;;;4.15;1.60;;;;;;;;;;5060702;28;20072;-80
2023/05/05 13:45:52;;;;;;;3.60;1.58;;;;;;;;;;5060139;28;20047;-80
2023/05/05 13:48:18;;;;;;;3.88;1.45;;;;;;;;;;5050760;28;20037;-80
2023/05/05 13:50:44;;;;;;;3.53;1.38;;;;;;;;;;5052646;28;20473;-80
2023/05/05 13:53:09;;;;;;;3.42;1.42;;;;;;;;;;5051515;28;20033;-79
2023/05/05 13:55:35;;;;;;;4.85;1.30;;;;;;;;;;5051565;28;20439;-80
2023/05/05 13:58:00;;;;;;;4.60;1.30;;;;;;;;;;5051508;28;20432;-79
2023/05/05 14:00:26;;;;;;;3.58;1.48;;;;;;;;;;5055440;28;20032;-79
2023/05/05 14:02:52;;;;;;;6.70;1.27;;;;;;;;;;5052150;28;20056;-80
2023/05/05 14:05:18;;;;;;;4.10;1.50;;;;;;;;;;5041516;28;20507;-80
2023/05/05 14:07:44;;;;;;;5.63;1.40;;;;;;;;;;5050270;28;20569;-79
2023/05/05 14:10:10;;;;;;;6.07;1.50;;;;;;;;;;5052086;28;20509;-79
2023/05/05 14:12:35;;;;;;;3.03;1.48;;;;;;;;;;5051075;28;20037;-80
2023/05/05 14:15:05;;;;;;;3.25;1.17;;;;;;;;;;5038245;28;20500;-84
2023/05/05 14:17:31;;;;;;;4.18;1.58;;;;;;;;;;5056935;28;20108;-80
2023/05/05 14:19:56;;;;;;;3.58;1.60;;;;;;;;;;5053124;28;20081;-81
2023/05/05 14:22:22;;;;;;;4.85;1.60;;;;;;;;;;5049717;28;20040;-82
2023/05/05 14:24:47;;;;;;;4.18;1.50;;;;;;;;;;5051925;28;20248;-80
2023/05/05 14:27:13;;;;;;;4.50;1.45;;;;;;;;;;5034317;28;20055;-79
2023/05/05 14:29:38;;;;;;;4.00;1.35;;;;;;;;;;5051251;28;20476;-80
2023/05/05 14:32:03;;;;;;;4.70;1.40;;;;;;;;;;5050140;28;20033;-81
2023/05/05 14:34:29;;;;;;;3.92;1.77;;;;;;;;;;5058422;28;20119;-80
2023/05/05 14:36:55;;;;;;;4.78;1.50;;;;;;;;;;5052921;28;20457;-79
2023/05/05 14:39:21;;;;;;;4.00;1.95;;;;;;;;;;5051142;28;20033;-79
2023/05/05 14:41:46;;;;;;;5.05;1.63;;;;;;;;;;5051464;28;20040;-80
2023/05/05 14:44:11;;;;;;;2.72;1.27;;;;;;;;;;5052118;28;20090;-79
2023/05/05 14:46:37;;;;;;;3.47;1.38;;;;;;;;;;5058112;28;20076;-79